ENOV Airport Information

Runway Information
Runway 06 Length 2920 ft width 98 ft
Elevation 241 ft Threshold 0 ft Heading 0
Runway 24 Length 2920 ft Width 98 ft
Elevation 238 ft Threshold 0 ft Heading 0
Airport Frequencies
Airport Navaids
Type NDB Name Baatvik Frequency 362 KHZ
Type NDB Name Hovden Frequency 389 KHZ
Airport Weather Information & NOTAM
ADDS - METARS form results

(1106 UTC 18 October 2018)
Data provider http://aviationweather.gov/metar/data/
 
METAR text: ENOV 181050Z 24009KT 9999 VCSH FEW033 BKN037 08/05 Q1020 RMK WIND 2175FT 23017KT
Conditions at: ENOV (ORSTA-VOLDA/HOVD, NO) observed 1050 UTC 18 October 2018
Temperature: 8.0°C (46°F)
Dewpoint: 5.0°C (41°F) [RH = 81%]
Pressure (altimeter): 30.12 inches Hg (1020.0 mb)
Winds: from the WSW (240 degrees) at 10 MPH (9 knots; 4.6 m/s)
Visibility: 6 or more miles (10+ km)
Ceiling: 3700 feet AGL
Clouds: few clouds at 3300 feet AGL
broken clouds at 3700 feet AGL
Weather: VCSH  (showers in vicinity)